Terminal Aerodrome Forecast
Issued by NWS Lake Charles, LA

Home | Current Version | Previous Version | Text Only | Print | Product List | Glossary On
Versions: 1 2 3 4 5 6 7 8 9 10 11 12 13 14 15 16 17 18
511
FTUS44 KLCH 272330 AAA
TAFARA
TAF AMD
KARA 272330Z 2800/2824 21010KT P6SM SCT022 SCT030 SCT035
     FM280200 20009KT P6SM FEW022 FEW035
     FM280700 VRB04KT 4SM BR OVC007
      TEMPO 2813/2815 FEW007 BKN015
     FM281500 16008KT P6SM BKN015
     FM281800 16010KT P6SM BKN050=

USA.gov is the U.S. government's official web portal to all federal, state and local government web resources and services.